Time;durP1;ratioP1;P1;durP2;ratioP2;P2;SDS_P1;SDS_P2;PMS_P1;PMS_P2;Temp;Humidity;BMP_temperature;BMP_pressure;BME280_temperature;BME280_humidity;BME280_pressure;Samples;Min_cycle;Max_cycle;Signal;HPM_P1;HPM_P2
2023/04/16 00:02:23;;;;;;;19.00;17.20;;;10.60;99.90;;;;;;4930435;29;20222;-68
2023/04/16 00:04:49;;;;;;;17.33;15.60;;;10.60;99.90;;;;;;4930196;29;20311;-68
2023/04/16 00:07:16;;;;;;;18.17;16.03;;;10.60;99.90;;;;;;4929899;29;20212;-68
2023/04/16 00:09:43;;;;;;;17.63;15.97;;;10.60;99.90;;;;;;4929655;29;20226;-69
2023/04/16 00:12:10;;;;;;;17.97;16.13;;;10.60;99.90;;;;;;4929555;29;20240;-69
2023/04/16 00:14:37;;;;;;;17.37;15.77;;;10.60;99.90;;;;;;4929378;29;20207;-68
2023/04/16 00:17:05;;;;;;;17.63;15.90;;;10.60;99.90;;;;;;4928790;29;20813;-69
2023/04/16 00:19:32;;;;;;;19.10;16.27;;;10.60;99.90;;;;;;4928456;29;20287;-69
2023/04/16 00:21:59;;;;;;;17.20;15.57;;;10.60;99.90;;;;;;4928766;29;20239;-68
2023/04/16 00:24:26;;;;;;;17.23;15.53;;;10.60;99.90;;;;;;4928319;29;20316;-69
2023/04/16 00:26:53;;;;;;;17.03;15.47;;;10.60;99.90;;;;;;4928346;29;20216;-69
2023/04/16 00:29:20;;;;;;;17.43;15.73;;;10.60;99.90;;;;;;4927974;29;20770;-69
2023/04/16 00:31:46;;;;;;;17.20;15.50;;;10.60;99.90;;;;;;4927773;29;20729;-69
2023/04/16 00:34:15;;;;;;;17.33;15.70;;;10.60;99.90;;;;;;4928230;29;20322;-69
2023/04/16 00:36:42;;;;;;;17.50;15.30;;;10.60;99.90;;;;;;4928721;29;20291;-69
2023/04/16 00:39:09;;;;;;;16.13;14.57;;;10.60;99.90;;;;;;4928832;29;20701;-69
2023/04/16 00:41:35;;;;;;;15.60;14.00;;;10.50;99.90;;;;;;4928599;29;20248;-69
2023/04/16 00:44:02;;;;;;;16.30;14.77;;;10.50;99.90;;;;;;4928300;29;20299;-70
2023/04/16 00:46:30;;;;;;;16.77;15.07;;;10.50;99.90;;;;;;4927945;29;20239;-70
2023/04/16 00:49:00;;;;;;;17.53;14.80;;;10.50;99.90;;;;;;4928197;29;20340;-69
2023/04/16 00:51:28;;;;;;;16.53;15.03;;;10.50;99.90;;;;;;4928431;28;20686;-69
2023/04/16 00:53:56;;;;;;;16.10;14.40;;;10.60;99.90;;;;;;4927995;29;20299;-69
2023/04/16 00:56:24;;;;;;;16.27;14.67;;;10.60;99.90;;;;;;4927746;29;20275;-69
2023/04/16 00:58:51;;;;;;;16.63;14.93;;;10.50;99.90;;;;;;4927415;29;20304;-68
2023/04/16 01:01:18;;;;;;;16.77;15.20;;;10.50;99.90;;;;;;4928134;29;20244;-68
2023/04/16 01:03:48;;;;;;;16.97;15.37;;;10.50;99.90;;;;;;4928003;29;20592;-68
2023/04/16 01:06:16;;;;;;;16.70;15.00;;;10.50;99.90;;;;;;4928017;29;20258;-68
2023/04/16 01:08:45;;;;;;;17.57;15.17;;;10.50;99.90;;;;;;4923503;29;20251;-68
2023/04/16 01:11:12;;;;;;;16.87;15.10;;;10.60;99.90;;;;;;4927847;29;20297;-69
2023/04/16 01:13:38;;;;;;;16.67;14.97;;;10.50;99.90;;;;;;4927469;29;20220;-68
2023/04/16 01:16:06;;;;;;;16.63;15.00;;;10.50;99.90;;;;;;4890108;29;1107341;-68
2023/04/16 01:18:33;;;;;;;16.67;14.97;;;10.50;99.90;;;;;;4928762;29;20275;-68
2023/04/16 01:21:02;;;;;;;16.57;15.03;;;10.50;99.90;;;;;;4928682;29;20307;-68
2023/04/16 01:23:29;;;;;;;15.67;14.17;;;10.50;99.90;;;;;;4928665;29;20222;-69
2023/04/16 01:25:56;;;;;;;18.47;15.83;;;10.50;99.90;;;;;;4928351;29;20204;-69
2023/04/16 01:28:23;;;;;;;16.80;15.20;;;10.50;99.90;;;;;;4928502;29;20238;-68
2023/04/16 01:30:50;;;;;;;16.43;14.80;;;10.50;99.90;;;;;;4928163;29;20303;-68
2023/04/16 01:33:18;;;;;;;16.17;14.47;;;10.50;99.90;;;;;;4928131;29;20271;-67
2023/04/16 01:35:45;;;;;;;15.73;14.20;;;10.50;99.90;;;;;;4928244;29;20318;-68
2023/04/16 01:38:14;;;;;;;15.93;14.43;;;10.50;99.90;;;;;;4928504;29;20235;-68
2023/04/16 01:40:40;;;;;;;17.17;14.83;;;10.50;99.90;;;;;;4928195;29;20315;-68
2023/04/16 01:43:07;;;;;;;16.17;14.47;;;10.50;99.90;;;;;;4927992;29;20311;-68
2023/04/16 01:45:35;;;;;;;15.00;13.70;;;10.50;99.90;;;;;;4927180;29;20722;-68
2023/04/16 01:48:03;;;;;;;15.53;14.07;;;10.50;99.90;;;;;;4927785;29;20311;-68
2023/04/16 01:50:30;;;;;;;16.03;14.33;;;10.50;99.90;;;;;;4927682;29;20215;-68
2023/04/16 01:52:57;;;;;;;15.30;13.27;;;10.50;99.90;;;;;;4927898;29;20239;-67
2023/04/16 01:55:26;;;;;;;15.43;13.83;;;10.50;99.90;;;;;;4928070;29;20316;-67
2023/04/16 01:57:53;;;;;;;15.87;14.37;;;10.50;99.90;;;;;;4927279;29;20212;-68
2023/04/16 02:00:20;;;;;;;15.10;13.57;;;10.50;99.90;;;;;;4927777;29;20299;-68
2023/04/16 02:02:47;;;;;;;16.47;14.43;;;10.40;99.90;;;;;;4928227;29;20212;-68
2023/04/16 02:05:14;;;;;;;15.43;13.83;;;10.40;99.90;;;;;;4928208;29;20216;-69
2023/04/16 02:07:41;;;;;;;15.27;13.77;;;10.40;99.90;;;;;;4927775;29;20615;-69
2023/04/16 02:10:10;;;;;;;15.43;13.80;;;10.40;99.90;;;;;;4928144;29;20298;-69
2023/04/16 02:12:38;;;;;;;15.60;14.00;;;10.40;99.90;;;;;;4927923;29;20246;-69
2023/04/16 02:15:06;;;;;;;18.23;14.13;;;10.40;99.90;;;;;;4927588;29;20794;-69
2023/04/16 02:17:32;;;;;;;15.43;13.80;;;10.40;99.90;;;;;;4927490;29;20323;-69
2023/04/16 02:20:01;;;;;;;15.03;13.53;;;10.40;99.90;;;;;;4927955;29;20295;-69
2023/04/16 02:22:28;;;;;;;15.47;13.37;;;10.40;99.90;;;;;;4927828;29;20213;-69
2023/04/16 02:24:55;;;;;;;15.70;14.10;;;10.40;99.90;;;;;;4928100;29;20639;-68
2023/04/16 02:27:22;;;;;;;19.13;14.13;;;10.40;99.90;;;;;;4927896;29;20295;-68
2023/04/16 02:29:50;;;;;;;16.33;13.97;;;10.40;99.90;;;;;;4927544;29;20255;-68
2023/04/16 02:32:17;;;;;;;16.70;14.17;;;10.40;99.90;;;;;;4927387;29;20322;-69
2023/04/16 02:34:44;;;;;;;16.73;14.63;;;10.30;99.90;;;;;;4927306;29;20244;-69
2023/04/16 02:37:11;;;;;;;15.83;14.23;;;10.30;99.90;;;;;;4927774;29;20299;-69
2023/04/16 02:39:38;;;;;;;15.47;13.87;;;10.30;99.90;;;;;;4927580;29;20307;-68
2023/04/16 02:42:04;;;;;;;15.70;13.90;;;10.30;99.90;;;;;;4927609;29;20222;-69
2023/04/16 02:44:31;;;;;;;16.67;14.97;;;10.30;99.90;;;;;;4926808;29;20212;-69
2023/04/16 02:47:00;;;;;;;16.73;14.87;;;10.30;99.90;;;;;;4927699;29;20299;-69
2023/04/16 02:49:27;;;;;;;16.97;15.20;;;10.30;99.90;;;;;;4927211;29;20266;-69
2023/04/16 02:51:54;;;;;;;17.53;15.03;;;10.30;99.90;;;;;;4927426;29;20244;-69
2023/04/16 02:54:20;;;;;;;17.07;15.23;;;10.30;99.90;;;;;;4926990;29;20284;-69
2023/04/16 02:56:47;;;;;;;17.43;15.63;;;10.40;99.90;;;;;;4927231;29;20214;-69
2023/04/16 02:59:14;;;;;;;19.00;15.90;;;10.30;99.90;;;;;;4927106;29;20299;-69
2023/04/16 03:01:41;;;;;;;18.43;15.50;;;10.30;99.90;;;;;;4926012;29;20693;-69
2023/04/16 03:04:09;;;;;;;17.47;15.40;;;10.30;99.90;;;;;;4927367;29;20661;-69
2023/04/16 03:06:36;;;;;;;18.03;16.13;;;10.30;99.90;;;;;;4927395;29;20767;-69
2023/04/16 03:09:03;;;;;;;17.90;15.63;;;10.30;99.90;;;;;;4928615;29;20298;-69
2023/04/16 03:11:30;;;;;;;19.23;16.53;;;10.30;99.90;;;;;;4931181;29;20215;-69
2023/04/16 03:13:57;;;;;;;18.50;16.50;;;10.20;99.90;;;;;;4930999;29;20334;-68
2023/04/16 03:16:24;;;;;;;19.80;16.80;;;10.20;99.90;;;;;;4930554;29;20637;-68
2023/04/16 03:18:51;;;;;;;22.20;17.60;;;10.20;99.90;;;;;;4931159;29;20204;-69
2023/04/16 03:21:19;;;;;;;19.67;16.80;;;10.20;99.90;;;;;;4930844;29;20216;-70
2023/04/16 03:23:46;;;;;;;19.10;17.00;;;10.20;99.90;;;;;;4930646;29;20299;-69
2023/04/16 03:26:13;;;;;;;21.00;16.50;;;10.20;99.90;;;;;;4930595;29;20218;-69
2023/04/16 03:28:40;;;;;;;17.83;15.80;;;10.10;99.90;;;;;;4929963;29;20310;-69
2023/04/16 03:31:07;;;;;;;21.13;16.63;;;10.10;99.90;;;;;;4911441;29;21021;-69
2023/04/16 03:33:34;;;;;;;19.00;14.90;;;10.10;99.90;;;;;;4911287;29;20798;-69
2023/04/16 03:36:01;;;;;;;19.97;16.53;;;10.10;99.90;;;;;;4911502;29;20324;-70
2023/04/16 03:38:29;;;;;;;17.20;15.40;;;10.10;99.90;;;;;;4921976;29;20211;-69
2023/04/16 03:40:56;;;;;;;18.97;15.33;;;10.10;99.90;;;;;;4930147;29;20298;-69
2023/04/16 03:43:23;;;;;;;18.03;15.00;;;10.10;99.90;;;;;;4930534;29;20299;-69
2023/04/16 03:45:50;;;;;;;19.47;14.77;;;10.10;99.90;;;;;;4914931;29;20215;-69
2023/04/16 03:48:17;;;;;;;17.13;15.30;;;10.10;99.90;;;;;;4911246;29;20291;-69
2023/04/16 03:50:47;;;;;;;21.97;15.17;;;10.10;99.90;;;;;;4911145;29;20217;-69
2023/04/16 03:53:14;;;;;;;18.03;15.43;;;10.10;99.90;;;;;;4918370;29;20707;-69
2023/04/16 03:55:42;;;;;;;18.03;14.97;;;10.10;99.90;;;;;;4930191;29;20279;-69
2023/04/16 03:58:09;;;;;;;19.43;15.20;;;10.10;99.90;;;;;;4929265;29;20216;-69
2023/04/16 04:00:36;;;;;;;17.60;14.63;;;10.10;99.90;;;;;;4929788;29;20222;-69
2023/04/16 04:03:03;;;;;;;18.00;14.00;;;10.00;99.90;;;;;;4944218;29;20242;-68
2023/04/16 04:05:30;;;;;;;16.53;14.80;;;10.00;99.90;;;;;;4937776;28;20294;-69
2023/04/16 04:07:57;;;;;;;15.40;13.80;;;10.00;99.90;;;;;;4929704;29;20291;-70
2023/04/16 04:10:24;;;;;;;17.10;14.47;;;10.00;99.90;;;;;;4929785;29;20294;-70
2023/04/16 04:12:52;;;;;;;16.90;14.30;;;10.00;99.90;;;;;;4929625;29;20263;-70
2023/04/16 04:15:19;;;;;;;16.73;14.87;;;10.00;99.90;;;;;;4929721;29;20240;-70
2023/04/16 04:17:46;;;;;;;16.47;14.53;;;10.10;99.90;;;;;;4929015;29;20240;-70
2023/04/16 04:20:13;;;;;;;16.50;14.83;;;10.00;99.90;;;;;;4928721;29;20295;-70
2023/04/16 04:22:40;;;;;;;17.47;14.87;;;10.00;99.90;;;;;;4928710;29;20699;-70
2023/04/16 04:25:08;;;;;;;19.47;15.03;;;10.10;99.90;;;;;;4929405;29;20295;-70
2023/04/16 04:27:35;;;;;;;19.53;15.50;;;10.00;99.90;;;;;;4929472;29;20291;-69
2023/04/16 04:30:04;;;;;;;17.53;15.37;;;10.10;99.90;;;;;;4928953;29;20218;-69
2023/04/16 04:32:31;;;;;;;19.40;15.37;;;10.00;99.90;;;;;;4929025;29;20719;-69
2023/04/16 04:34:58;;;;;;;20.93;15.50;;;10.10;99.90;;;;;;4929531;29;20729;-69
2023/04/16 04:37:25;;;;;;;17.87;15.63;;;10.00;99.90;;;;;;4928936;29;20374;-69
2023/04/16 04:39:52;;;;;;;20.03;16.27;;;10.00;99.90;;;;;;4929036;29;20306;-68
2023/04/16 04:42:20;;;;;;;19.67;15.37;;;10.00;99.90;;;;;;4929168;29;20295;-69
2023/04/16 04:44:47;;;;;;;20.53;16.20;;;10.00;99.90;;;;;;4928776;29;20757;-69
2023/04/16 04:47:15;;;;;;;19.43;15.67;;;10.00;99.90;;;;;;4928833;29;20224;-69
2023/04/16 04:49:42;;;;;;;19.03;15.43;;;10.00;99.90;;;;;;4928504;29;20713;-69
2023/04/16 04:52:10;;;;;;;21.27;16.67;;;10.00;99.90;;;;;;4929097;29;20582;-69
2023/04/16 04:54:40;;;;;;;21.30;16.77;;;10.00;99.90;;;;;;4947782;28;20870;-68
2023/04/16 04:57:07;;;;;;;20.47;15.13;;;10.00;99.90;;;;;;4948214;28;20220;-69
2023/04/16 04:59:34;;;;;;;20.40;15.47;;;10.00;99.90;;;;;;4937231;28;20204;-69
2023/04/16 05:02:02;;;;;;;16.97;15.20;;;10.00;99.90;;;;;;4928601;29;20215;-69
2023/04/16 05:04:30;;;;;;;16.90;14.83;;;10.00;99.90;;;;;;4928645;29;20264;-69
2023/04/16 05:06:57;;;;;;;17.50;15.60;;;10.00;99.90;;;;;;4929144;29;20208;-69
2023/04/16 05:09:24;;;;;;;17.27;14.67;;;10.00;99.90;;;;;;4929016;29;20279;-69
2023/04/16 05:11:51;;;;;;;17.03;14.70;;;10.00;99.90;;;;;;4929047;29;20291;-68
2023/04/16 05:14:18;;;;;;;18.10;14.17;;;10.00;99.90;;;;;;4928807;29;20263;-69
2023/04/16 05:16:45;;;;;;;15.50;13.90;;;10.00;99.90;;;;;;4928532;29;20323;-69
2023/04/16 05:19:12;;;;;;;16.80;15.07;;;10.00;99.90;;;;;;4928656;29;20224;-69
2023/04/16 05:21:40;;;;;;;15.27;13.73;;;10.00;99.90;;;;;;4928550;29;20303;-69
2023/04/16 05:24:07;;;;;;;14.97;13.47;;;10.00;99.90;;;;;;4928125;29;20896;-69
2023/04/16 05:26:34;;;;;;;16.07;13.63;;;10.00;99.90;;;;;;4927986;29;20239;-69
2023/04/16 05:29:01;;;;;;;15.17;13.63;;;10.00;99.90;;;;;;4921702;29;20590;-68
2023/04/16 05:31:28;;;;;;;16.10;13.93;;;10.00;99.90;;;;;;4923620;29;20231;-69
2023/04/16 05:33:54;;;;;;;16.43;14.27;;;10.00;99.90;;;;;;4927648;29;20318;-69
2023/04/16 05:36:21;;;;;;;14.63;13.10;;;10.00;99.90;;;;;;4927934;29;20201;-69
2023/04/16 05:38:50;;;;;;;16.37;12.97;;;10.10;99.90;;;;;;4928347;29;20224;-69
2023/04/16 05:41:16;;;;;;;15.67;13.50;;;10.00;99.90;;;;;;4928668;29;20623;-68
2023/04/16 05:43:43;;;;;;;16.40;13.40;;;10.10;99.90;;;;;;4928165;29;20216;-68
2023/04/16 05:46:10;;;;;;;15.70;14.10;;;10.10;99.90;;;;;;4928337;29;20307;-69
2023/04/16 05:48:37;;;;;;;16.97;14.37;;;10.20;99.90;;;;;;4928419;29;20228;-69
2023/04/16 05:51:04;;;;;;;14.90;13.30;;;10.10;99.90;;;;;;4928251;29;20216;-68
2023/04/16 05:53:31;;;;;;;16.27;14.47;;;10.10;99.90;;;;;;4928046;29;20322;-68
2023/04/16 05:56:00;;;;;;;15.33;13.57;;;10.10;99.90;;;;;;4928173;29;20307;-68
2023/04/16 05:58:26;;;;;;;16.33;13.97;;;10.10;99.90;;;;;;4928083;29;20208;-68
2023/04/16 06:00:53;;;;;;;15.30;12.73;;;10.10;99.90;;;;;;4927919;29;20299;-68
2023/04/16 06:03:20;;;;;;;16.47;13.53;;;10.20;99.90;;;;;;4927846;29;20295;-68
2023/04/16 06:05:47;;;;;;;15.00;13.40;;;10.10;99.90;;;;;;4927643;29;20243;-68
2023/04/16 06:08:14;;;;;;;15.03;13.30;;;10.20;99.90;;;;;;4927716;29;20291;-68
2023/04/16 06:10:41;;;;;;;15.57;14.07;;;10.20;99.90;;;;;;4927515;29;20270;-68
2023/04/16 06:13:10;;;;;;;15.70;14.13;;;10.20;99.90;;;;;;4927209;29;20330;-68
2023/04/16 06:15:36;;;;;;;17.10;14.23;;;10.20;99.90;;;;;;4927243;29;20212;-69
2023/04/16 06:18:03;;;;;;;14.87;13.47;;;10.20;99.90;;;;;;4927441;29;20371;-69
2023/04/16 06:20:31;;;;;;;15.00;13.40;;;10.20;99.90;;;;;;4927028;29;20296;-68
2023/04/16 06:22:58;;;;;;;17.60;13.80;;;10.20;99.90;;;;;;4928090;29;20718;-69
2023/04/16 06:25:25;;;;;;;17.60;15.33;;;10.20;99.90;;;;;;4927213;29;20323;-68
2023/04/16 06:27:51;;;;;;;18.83;15.20;;;10.20;99.90;;;;;;4927918;29;20216;-68
2023/04/16 06:30:20;;;;;;;15.67;14.07;;;10.20;99.90;;;;;;4927715;29;20315;-69
2023/04/16 06:32:47;;;;;;;17.43;14.27;;;10.20;99.90;;;;;;4927940;29;20311;-68
2023/04/16 06:35:14;;;;;;;15.23;13.47;;;10.30;99.90;;;;;;4927964;29;20254;-68
2023/04/16 06:37:41;;;;;;;16.03;14.37;;;10.20;99.90;;;;;;4927826;29;20204;-68
2023/04/16 06:40:09;;;;;;;15.57;13.80;;;10.20;99.90;;;;;;4927408;29;20208;-69
2023/04/16 06:42:36;;;;;;;17.23;13.50;;;10.20;99.90;;;;;;4927233;29;20223;-69
2023/04/16 06:45:03;;;;;;;15.57;13.80;;;10.20;99.90;;;;;;4929303;29;20222;-69
2023/04/16 06:47:31;;;;;;;17.00;14.23;;;10.20;99.90;;;;;;4931019;29;20224;-69
2023/04/16 06:49:58;;;;;;;16.20;13.63;;;10.20;99.90;;;;;;4931130;29;20742;-68
2023/04/16 06:52:25;;;;;;;15.43;13.93;;;10.20;99.90;;;;;;4931220;29;20658;-68
2023/04/16 06:54:52;;;;;;;17.63;15.20;;;10.20;99.90;;;;;;4931168;29;20239;-68
2023/04/16 06:57:19;;;;;;;15.13;13.57;;;10.20;99.90;;;;;;4930711;29;20204;-68
2023/04/16 06:59:45;;;;;;;15.83;14.07;;;10.20;99.90;;;;;;4927910;29;20354;-67
2023/04/16 07:02:12;;;;;;;14.50;13.00;;;10.30;99.90;;;;;;4930838;29;20232;-68
2023/04/16 07:04:41;;;;;;;15.87;14.10;;;10.30;99.90;;;;;;4930560;29;20279;-68
2023/04/16 07:07:08;;;;;;;16.70;14.93;;;10.30;99.90;;;;;;4930467;29;20303;-68
2023/04/16 07:09:35;;;;;;;16.97;14.20;;;10.30;99.90;;;;;;4930505;29;20208;-69
2023/04/16 07:12:02;;;;;;;15.20;13.70;;;10.30;99.90;;;;;;4930040;29;20772;-68
2023/04/16 07:14:29;;;;;;;15.40;13.73;;;10.30;99.90;;;;;;4927336;29;20230;-68
2023/04/16 07:16:56;;;;;;;15.43;13.53;;;10.30;99.90;;;;;;4929897;29;20239;-68
2023/04/16 07:19:23;;;;;;;15.03;13.37;;;10.30;99.90;;;;;;4930106;29;20286;-68
2023/04/16 07:21:51;;;;;;;15.90;13.57;;;10.30;99.90;;;;;;4929970;29;20291;-68
2023/04/16 07:24:18;;;;;;;15.40;13.50;;;10.30;99.90;;;;;;4927432;29;20214;-68
2023/04/16 07:26:45;;;;;;;14.47;12.97;;;10.30;99.90;;;;;;4929452;29;20291;-68
2023/04/16 07:29:12;;;;;;;14.97;13.43;;;10.30;99.90;;;;;;4929600;29;20239;-69
2023/04/16 07:31:39;;;;;;;14.63;13.00;;;10.30;99.90;;;;;;4929887;29;20208;-69
2023/04/16 07:34:06;;;;;;;14.70;13.13;;;10.30;99.90;;;;;;4930043;29;20320;-69
2023/04/16 07:36:33;;;;;;;15.13;13.47;;;10.30;99.90;;;;;;4926959;29;20209;-69
2023/04/16 07:39:01;;;;;;;16.00;14.33;;;10.30;99.90;;;;;;4930238;29;20204;-68
2023/04/16 07:41:28;;;;;;;16.13;13.60;;;10.30;99.90;;;;;;4929571;29;20268;-68
2023/04/16 07:43:55;;;;;;;14.60;13.03;;;10.30;99.90;;;;;;4927172;29;20212;-69
2023/04/16 07:46:22;;;;;;;15.77;14.17;;;10.30;99.90;;;;;;4928559;29;20208;-69
2023/04/16 07:48:49;;;;;;;15.53;13.93;;;10.30;99.90;;;;;;4930069;29;20299;-69
2023/04/16 07:51:16;;;;;;;20.20;14.00;;;10.40;99.90;;;;;;4927522;29;20320;-69
2023/04/16 07:53:43;;;;;;;15.43;13.83;;;10.30;99.90;;;;;;4930104;29;20774;-69
2023/04/16 07:56:11;;;;;;;16.17;13.97;;;10.30;99.90;;;;;;4930171;29;20215;-69
2023/04/16 07:58:38;;;;;;;15.20;13.57;;;10.40;99.90;;;;;;4930228;29;20299;-69
2023/04/16 08:01:05;;;;;;;16.03;13.60;;;10.40;99.90;;;;;;4929978;29;20239;-69
2023/04/16 08:03:32;;;;;;;17.23;13.10;;;10.40;99.90;;;;;;4929432;29;20667;-69
2023/04/16 08:05:59;;;;;;;17.17;13.53;;;10.40;99.90;;;;;;4928700;29;20305;-69
2023/04/16 08:08:26;;;;;;;15.73;12.90;;;10.40;99.90;;;;;;4926479;29;20200;-69
2023/04/16 08:10:54;;;;;;;15.60;13.63;;;10.50;99.90;;;;;;4927705;29;20322;-69
2023/04/16 08:13:24;;;;;;;14.47;12.97;;;10.50;99.90;;;;;;4928012;29;20220;-69
2023/04/16 08:15:51;;;;;;;14.17;12.77;;;10.50;99.90;;;;;;4927372;29;20338;-69
2023/04/16 08:18:18;;;;;;;15.47;13.70;;;10.50;99.90;;;;;;4927779;29;20299;-69
2023/04/16 08:20:45;;;;;;;14.23;12.73;;;10.60;99.90;;;;;;4927862;29;20721;-69
2023/04/16 08:23:12;;;;;;;15.20;13.53;;;10.60;99.90;;;;;;4927878;29;20220;-69
2023/04/16 08:25:39;;;;;;;13.93;12.47;;;10.60;99.90;;;;;;4928275;29;20753;-69
2023/04/16 08:28:06;;;;;;;15.53;12.93;;;10.60;99.90;;;;;;4928488;29;20244;-69
2023/04/16 08:30:34;;;;;;;15.53;13.63;;;10.60;99.90;;;;;;4927853;29;20689;-69
2023/04/16 08:33:01;;;;;;;14.83;13.03;;;10.60;99.90;;;;;;4928031;29;20295;-69
2023/04/16 08:35:28;;;;;;;14.70;13.20;;;10.60;99.90;;;;;;4927937;29;20247;-69
2023/04/16 08:37:56;;;;;;;13.97;12.53;;;10.60;99.90;;;;;;4920650;29;20267;-69
2023/04/16 08:40:25;;;;;;;16.60;13.23;;;10.60;99.90;;;;;;4927440;29;20200;-70
2023/04/16 08:42:54;;;;;;;14.83;13.30;;;10.60;99.90;;;;;;4927519;29;20263;-69
2023/04/16 08:45:21;;;;;;;14.43;12.67;;;10.60;99.90;;;;;;4926972;29;20215;-69
2023/04/16 08:47:50;;;;;;;13.30;11.83;;;10.60;99.90;;;;;;4927060;29;20581;-69
2023/04/16 08:50:22;;;;;;;13.77;11.93;;;10.70;99.90;;;;;;4927427;29;20299;-69
2023/04/16 08:52:52;;;;;;;13.70;12.30;;;10.60;99.90;;;;;;4927559;29;20742;-69
2023/04/16 08:55:23;;;;;;;13.60;12.27;;;10.70;99.90;;;;;;4927084;29;20228;-69
2023/04/16 08:57:54;;;;;;;13.97;12.50;;;10.70;99.90;;;;;;4927121;29;20204;-69
2023/04/16 09:00:21;;;;;;;13.03;11.60;;;10.70;99.90;;;;;;4926796;29;20667;-70
2023/04/16 09:02:50;;;;;;;14.70;11.97;;;10.70;99.90;;;;;;4927171;29;20204;-69
2023/04/16 09:05:20;;;;;;;13.20;11.67;;;10.70;99.90;;;;;;4926743;29;20208;-69
2023/04/16 09:07:48;;;;;;;13.10;11.40;;;10.70;99.90;;;;;;4926505;29;20305;-69
2023/04/16 09:10:15;;;;;;;14.57;12.10;;;10.70;99.90;;;;;;4927101;29;20244;-69
2023/04/16 09:12:43;;;;;;;12.87;11.47;;;10.60;99.90;;;;;;4926845;29;20708;-69
2023/04/16 09:15:11;;;;;;;13.33;12.03;;;10.60;99.90;;;;;;4926887;29;20231;-69
2023/04/16 09:17:38;;;;;;;13.57;12.17;;;10.60;99.90;;;;;;4926452;29;20354;-70
2023/04/16 09:20:09;;;;;;;13.13;11.40;;;10.60;99.90;;;;;;4927093;29;20291;-69
2023/04/16 09:22:37;;;;;;;13.20;11.90;;;10.60;99.90;;;;;;4926826;29;20291;-69
2023/04/16 09:25:05;;;;;;;13.73;12.33;;;10.60;99.90;;;;;;4923844;29;20217;-69
2023/04/16 09:27:32;;;;;;;14.23;12.70;;;10.60;99.90;;;;;;4926379;29;20295;-69
2023/04/16 09:29:59;;;;;;;13.83;12.40;;;10.60;99.90;;;;;;4926313;29;20742;-69
2023/04/16 09:32:30;;;;;;;13.13;11.83;;;10.70;99.90;;;;;;4926689;29;20260;-69
2023/04/16 09:34:59;;;;;;;12.93;11.63;;;10.70;99.90;;;;;;4932839;29;20290;-69
2023/04/16 09:37:29;;;;;;;14.27;12.87;;;10.70;99.90;;;;;;4936068;28;20303;-69
2023/04/16 09:39:57;;;;;;;13.93;12.40;;;10.70;99.90;;;;;;4926343;29;20208;-69
2023/04/16 09:42:27;;;;;;;13.63;12.27;;;10.70;99.90;;;;;;4926659;29;20436;-69
2023/04/16 09:44:55;;;;;;;13.47;11.87;;;10.80;99.90;;;;;;4926488;29;20767;-69
2023/04/16 09:47:23;;;;;;;14.10;12.67;;;10.70;99.90;;;;;;4926650;29;20258;-69
2023/04/16 09:49:50;;;;;;;14.20;12.70;;;10.70;99.90;;;;;;4926520;29;20220;-69
2023/04/16 09:52:18;;;;;;;15.97;12.93;;;10.70;99.90;;;;;;4926642;29;20227;-69
2023/04/16 09:54:48;;;;;;;13.27;12.03;;;10.80;99.90;;;;;;4920774;29;20295;-69
2023/04/16 09:57:19;;;;;;;13.30;11.90;;;10.70;99.90;;;;;;4925955;29;20299;-69
2023/04/16 09:59:46;;;;;;;14.23;12.30;;;10.80;99.90;;;;;;4925785;29;20257;-70
2023/04/16 10:02:13;;;;;;;14.17;12.67;;;10.80;99.90;;;;;;4925851;29;20327;-70
2023/04/16 10:04:47;;;;;;;13.53;12.23;;;10.80;99.90;;;;;;4925901;29;20256;-70
2023/04/16 10:07:14;;;;;;;15.27;13.73;;;10.80;99.90;;;;;;4926469;29;20841;-70
2023/04/16 10:09:42;;;;;;;13.77;12.37;;;10.80;99.90;;;;;;4926141;29;20327;-69
2023/04/16 10:12:11;;;;;;;14.73;12.73;;;10.80;99.90;;;;;;4926636;29;20355;-70
2023/04/16 10:14:38;;;;;;;13.93;12.00;;;10.80;99.90;;;;;;4925677;29;20733;-70
2023/04/16 10:17:06;;;;;;;13.70;12.27;;;10.80;99.90;;;;;;4925781;29;20252;-70
2023/04/16 10:19:34;;;;;;;13.67;12.30;;;10.80;99.90;;;;;;4927483;29;20212;-70
2023/04/16 10:22:01;;;;;;;14.47;12.97;;;10.90;99.90;;;;;;4929514;29;20247;-70
2023/04/16 10:24:30;;;;;;;14.90;13.40;;;10.80;99.90;;;;;;4929801;29;20946;-70
2023/04/16 10:26:57;;;;;;;13.77;12.33;;;10.90;99.90;;;;;;4929592;29;20222;-70
2023/04/16 10:29:27;;;;;;;13.97;12.07;;;10.90;99.90;;;;;;4929406;29;20315;-69
2023/04/16 10:31:56;;;;;;;14.30;12.90;;;10.90;99.90;;;;;;4948055;29;20309;-69
2023/04/16 10:34:24;;;;;;;15.20;13.63;;;10.90;99.90;;;;;;4931221;28;20287;-69
2023/04/16 10:36:52;;;;;;;14.40;12.90;;;10.90;99.90;;;;;;4930009;29;20327;-70
2023/04/16 10:39:24;;;;;;;15.03;13.03;;;10.90;99.90;;;;;;4930006;29;20211;-70
2023/04/16 10:42:06;;;;;;;13.27;11.97;;;10.90;99.90;;;;;;4929635;29;20226;-70
2023/04/16 10:44:34;;;;;;;13.67;11.93;;;11.00;99.90;;;;;;4928595;29;20290;-70
2023/04/16 10:47:02;;;;;;;13.90;12.50;;;11.00;99.90;;;;;;4925045;29;20232;-70
2023/04/16 10:49:29;;;;;;;13.27;11.97;;;11.00;99.90;;;;;;4930595;29;20259;-70
2023/04/16 10:51:56;;;;;;;14.80;12.30;;;11.00;99.90;;;;;;4929943;29;20309;-70
2023/04/16 10:54:25;;;;;;;13.37;12.03;;;11.10;99.90;;;;;;4931178;29;20319;-70
2023/04/16 10:56:53;;;;;;;13.83;12.43;;;11.10;99.90;;;;;;4930587;29;20215;-70
2023/04/16 10:59:21;;;;;;;12.80;11.50;;;11.20;99.90;;;;;;4922042;29;20216;-70
2023/04/16 11:01:52;;;;;;;13.27;11.93;;;11.30;99.90;;;;;;4921464;29;20201;-70
2023/04/16 11:04:34;;;;;;;13.33;11.43;;;11.40;99.90;;;;;;4931218;29;20211;-70
2023/04/16 11:07:07;;;;;;;11.70;10.60;;;11.40;99.90;;;;;;4931144;29;20196;-70
2023/04/16 11:09:45;;;;;;;11.60;10.43;;;11.50;99.90;;;;;;4912470;29;20228;-71
2023/04/16 11:12:14;;;;;;;11.77;10.67;;;11.50;99.90;;;;;;4912506;29;20232;-70
2023/04/16 11:14:42;;;;;;;12.33;10.50;;;11.50;99.90;;;;;;4917301;29;21014;-70
2023/04/16 11:17:10;;;;;;;11.07;10.07;;;11.50;99.90;;;;;;4930293;29;20765;-70
2023/04/16 11:19:38;;;;;;;12.00;10.80;;;11.50;99.90;;;;;;4930389;29;20223;-70
2023/04/16 11:22:05;;;;;;;11.47;10.47;;;11.50;99.90;;;;;;4930762;29;20741;-70
2023/04/16 11:24:32;;;;;;;11.27;10.13;;;11.50;99.90;;;;;;4930496;29;20694;-70
2023/04/16 11:27:00;;;;;;;10.70;9.73;;;11.50;99.90;;;;;;4939616;29;20246;-70
2023/04/16 11:29:27;;;;;;;10.33;9.43;;;11.40;99.90;;;;;;4921072;29;20223;-70
2023/04/16 11:31:55;;;;;;;11.17;10.07;;;11.40;99.90;;;;;;4927793;29;20312;-70
2023/04/16 11:34:23;;;;;;;10.93;9.93;;;11.40;99.90;;;;;;4928552;29;20212;-70
2023/04/16 11:36:51;;;;;;;10.03;9.13;;;11.40;99.90;;;;;;4928667;29;20295;-70
2023/04/16 11:39:18;;;;;;;10.43;9.63;;;11.40;99.90;;;;;;4914157;29;20594;-69
2023/04/16 11:41:46;;;;;;;10.73;9.83;;;11.30;99.90;;;;;;4910965;29;20655;-69
2023/04/16 11:44:20;;;;;;;11.07;9.97;;;11.30;99.90;;;;;;4928839;29;20239;-69
2023/04/16 11:46:48;;;;;;;10.37;9.47;;;11.30;99.90;;;;;;4927637;29;20227;-70
2023/04/16 11:49:16;;;;;;;10.00;9.10;;;11.30;99.90;;;;;;4928647;29;20299;-70
2023/04/16 11:51:46;;;;;;;10.40;9.50;;;11.30;99.90;;;;;;4928333;29;20205;-69
2023/04/16 11:54:20;;;;;;;10.47;9.40;;;11.30;99.90;;;;;;4929335;29;20303;-71
2023/04/16 11:56:48;;;;;;;10.50;9.40;;;11.30;99.90;;;;;;4925509;29;20240;-70
2023/04/16 11:59:17;;;;;;;10.97;9.87;;;11.20;99.90;;;;;;4929596;29;20327;-70
2023/04/16 12:01:47;;;;;;;9.33;8.53;;;11.30;99.90;;;;;;4930180;29;20314;-70
2023/04/16 12:04:15;;;;;;;10.10;9.20;;;11.20;99.90;;;;;;4930157;29;20286;-70
2023/04/16 12:07:02;;;;;;;9.83;8.93;;;11.30;99.90;;;;;;4929844;29;20215;-70
2023/04/16 12:09:30;;;;;;;10.13;9.23;;;11.30;99.90;;;;;;4929458;29;20327;-70
2023/04/16 12:11:57;;;;;;;10.40;9.40;;;11.20;99.90;;;;;;4929220;29;20219;-70
2023/04/16 12:14:24;;;;;;;10.37;9.40;;;11.20;99.90;;;;;;4925263;29;20319;-70
2023/04/16 12:16:51;;;;;;;9.53;8.73;;;11.20;99.90;;;;;;4927463;29;20642;-70
2023/04/16 12:19:18;;;;;;;10.27;9.33;;;11.20;99.90;;;;;;4928258;29;20214;-70
2023/04/16 12:21:46;;;;;;;10.37;9.30;;;11.20;99.90;;;;;;4928000;29;20200;-70
2023/04/16 12:24:14;;;;;;;9.77;8.63;;;11.20;99.90;;;;;;4944784;29;20212;-70
2023/04/16 12:26:45;;;;;;;9.70;8.90;;;11.30;99.90;;;;;;4934074;28;20299;-70
2023/04/16 12:29:19;;;;;;;10.03;9.03;;;11.20;99.90;;;;;;4927709;29;20204;-70
2023/04/16 12:31:47;;;;;;;9.10;8.33;;;11.20;99.90;;;;;;4927348;29;20202;-70